Latest Weather Observations for Thredbo Top Station

IDN60901

Issued at 5:21 pm EDT Wednesday 28 January 2015 (issued every 10 minutes, with the page automatically refreshed every 10 minutes)

About weather observations | Map of Canberra area stations | Latest observations for Canberra area | Other Formats
Station Details ID: 071032 Name: THREDBO AWS Lat: -36.49 Lon: 148.29 Height: 1957.0 m
Data from the previous 72 hours. | See also: Recent months at Thredbo Top Station
Date/Time
EDT
Tmp

°C
App
Tmp
°C
Dew
Point
°C
Rel
Hum
%
Delta-T

°C
Wind Press
QNH
hPa
Press
MSL
hPa
Rain
since
9 am
mm
Dir
 
Spd
km/h
Gust
km/h
Spd
kts
Gust
kts
28/05:00pm 4.8 1.1 4.7 99 0.0 SSE 13 20 7 11 1018.3 1014.5 0.8
28/04:30pm 4.0 0.2 3.9 99 0.0 SSE 13 20 7 11 1018.7 1014.8 0.8
28/04:00pm 4.5 1.6 4.4 99 0.0 SSE 9 15 5 8 1018.8 1015.0 0.6
28/03:30pm 4.4 -0.5 4.3 99 0.0 SSE 19 32 10 17 1018.8 1015.0 0.2
28/03:00pm 4.1 -1.4 4.0 99 0.0 SSE 22 30 12 16 1018.8 1015.0 0.2
28/02:30pm 4.5 -1.7 4.4 99 0.0 SSE 26 37 14 20 1018.8 1015.0 0.2
28/02:00pm 6.9 1.9 4.7 86 1.0 SSE 20 30 11 16 1018.2 1014.4 0.0
28/01:30pm 9.1 5.1 5.1 76 1.9 SSE 15 26 8 14 1018.3 1014.5 0.0
28/01:00pm 7.1 3.6 5.3 88 0.9 ESE 13 19 7 10 1018.3 1014.5 0.0
28/12:30pm 7.3 3.6 6.2 93 0.5 SSE 15 20 8 11 1018.7 1014.8 0.0
28/12:00pm 5.0 0.5 4.0 93 0.5 SSE 17 26 9 14 1019.0 1015.2 0.0
28/11:30am 5.9 2.5 5.8 99 0.0 SE 13 20 7 11 1018.9 1015.1 0.0
28/11:00am 6.3 3.0 6.2 99 0.0 ESE 13 22 7 12 1018.9 1015.1 0.0
28/10:30am 5.7 2.2 5.6 99 0.0 ESE 13 19 7 10 1018.9 1015.1 0.0
28/10:00am 5.2 2.0 5.1 99 0.0 SSE 11 19 6 10 1018.8 1015.0 0.0
28/09:30am 4.6 1.7 4.5 99 0.0 SE 9 19 5 10 1018.7 1014.8 0.0
28/09:00am 4.3 0.9 4.2 99 0.0 ESE 11 19 6 10 1018.6 1014.7 5.8
28/08:30am 4.3 0.9 4.2 99 0.0 ESE 11 19 6 10 1018.4 1014.6 5.8
28/08:00am 4.5 1.9 4.4 99 0.0 ESE 7 11 4 6 1018.2 1014.4 5.8
28/07:30am 4.2 1.2 4.1 99 0.0 E 9 11 5 6 1017.8 1013.9 5.8
28/07:00am 4.3 1.7 4.2 99 0.0 SE 7 13 4 7 1017.5 1013.7 5.8
28/06:30am 4.5 1.9 4.4 99 0.0 SSE 7 15 4 8 1017.3 1013.4 5.2
28/05:30am 4.9 2.0 4.8 99 0.0 ENE 9 13 5 7 1016.7 1012.8 4.4
28/05:00am 5.0 2.1 4.9 99 0.0 ENE 9 13 5 7 1016.5 1012.6 4.2
28/04:30am 5.0 2.1 4.9 99 0.0 E 9 15 5 8 1016.4 1012.5 4.2
28/04:00am 5.1 2.3 5.0 99 0.0 ENE 9 13 5 7 1016.4 1012.5 4.0
28/03:30am 5.2 2.0 5.1 99 0.0 ENE 11 17 6 9 1016.5 1012.6 4.0
28/03:00am 5.2 2.0 5.1 99 0.0 ENE 11 15 6 8 1016.8 1013.0 4.0
28/02:30am 5.3 2.5 5.2 99 0.0 ENE 9 15 5 8 1017.0 1013.1 3.8
28/02:00am 5.4 2.2 5.3 99 0.0 ENE 11 17 6 9 1017.2 1013.3 3.6
28/01:30am 5.5 1.6 5.4 99 0.0 ENE 15 19 8 10 1017.3 1013.4 3.6
28/01:00am 5.6 2.9 5.5 99 0.0 ENE 9 15 5 8 1017.4 1013.5 3.6
28/12:30am 5.6 2.5 5.5 99 0.0 ENE 11 17 6 9 1017.5 1013.7 3.4
28/12:00am 5.6 2.5 5.5 99 0.0 E 11 17 6 9 1017.5 1013.7 3.2
 
Date/Time
EDT
Tmp

°C
App
Tmp
°C
Dew
Point
°C
Rel
Hum
%
Delta-T

°C
Wind Press
QNH
hPa
Press
MSL
hPa
Rain
since
9 am
mm
Dir
 
Spd
km/h
Gust
km/h
Spd
kts
Gust
kts
27/11:30pm 5.7 2.2 5.6 99 0.0 ENE 13 19 7 10 1017.5 1013.7 3.0
27/11:00pm 5.7 1.9 5.6 99 0.0 ENE 15 22 8 12 1017.4 1013.5 2.8
27/10:30pm 5.8 2.0 5.7 99 0.0 ENE 15 24 8 13 1017.5 1013.7 2.6
27/10:00pm 6.0 2.6 5.9 99 0.0 E 13 20 7 11 1017.5 1013.7 2.4
27/09:30pm 6.2 3.2 6.1 99 0.0 ESE 11 19 6 10 1017.4 1013.5 2.2
27/09:00pm 6.1 2.7 6.0 99 0.0 ESE 13 19 7 10 1017.1 1013.2 2.0
27/08:30pm 6.4 3.1 6.3 99 0.0 ESE 13 19 7 10 1017.0 1013.1 2.0
27/08:00pm 6.6 3.3 6.5 99 0.0 ESE 13 20 7 11 1016.6 1012.7 1.8
27/07:30pm 6.7 3.4 6.6 99 0.0 ESE 13 22 7 12 1016.5 1012.6 1.6
27/07:00pm 6.8 3.6 6.7 99 0.0 ESE 13 20 7 11 1016.0 1012.1 1.6
27/06:30pm 6.9 3.7 6.8 99 0.0 E 13 22 7 12 1015.7 1011.8 1.2
27/06:00pm 7.2 4.4 7.1 99 0.1 E 11 19 6 10 1015.6 1011.7 1.2
27/05:30pm 7.5 4.4 7.4 99 0.1 ESE 13 19 7 10 1015.8 1011.9 1.0
27/05:00pm 7.7 4.7 7.6 99 0.1 ESE 13 20 7 11 1015.9 1012.0 0.8
27/04:30pm 7.1 4.7 7.0 99 0.1 E 9 17 5 9 1015.9 1012.0 0.6
27/04:00pm 7.4 4.3 7.3 99 0.1 E 13 19 7 10 1015.9 1012.0 0.4
27/03:30pm 7.5 4.8 7.4 99 0.1 E 11 17 6 9 1015.9 1012.0 0.4
27/03:00pm 7.6 4.9 7.5 99 0.1 ENE 11 20 6 11 1016.2 1012.3 0.4
27/02:30pm 7.5 5.2 7.4 99 0.1 E 9 17 5 9 1016.4 1012.5 0.4
27/02:00pm 7.2 4.8 7.1 99 0.1 E 9 17 5 9 1016.5 1012.6 0.4
27/01:30pm 7.0 5.0 6.9 99 0.0 ENE 7 11 4 6 1016.6 1012.7 0.4
27/01:00pm 6.9 4.5 6.8 99 0.0 E 9 13 5 7 1016.7 1012.8 0.4
27/12:30pm 7.3 5.3 7.2 99 0.1 E 7 11 4 6 1017.0 1013.1 0.0
27/12:00pm 7.5 5.8 7.4 99 0.1 E 6 11 3 6 1017.1 1013.2 0.0
27/11:30am 7.0 5.0 6.9 99 0.0 E 7 13 4 7 1017.2 1013.3 0.0
27/11:00am 6.3 4.3 6.2 99 0.0 E 6 9 3 5 1017.2 1013.3 0.0
27/10:30am 6.3 4.3 6.2 99 0.0 E 6 9 3 5 1017.3 1013.4 0.0
27/10:00am 7.2 5.4 7.1 99 0.1 ENE 6 15 3 8 1017.3 1013.4 0.0
27/09:30am 6.4 4.2 6.3 99 0.0 NE 7 24 4 13 1017.3 1013.4 0.0
27/09:00am 5.9 3.2 5.8 99 0.0 NE 9 22 5 12 1017.1 1013.2 2.2
27/08:30am 6.8 3.9 6.7 99 0.0 NE 11 20 6 11 1016.8 1013.0 2.2
27/08:00am 6.2 2.1 6.1 99 0.0 NNE 17 28 9 15 1016.7 1012.8 2.2
27/07:30am 5.1 1.5 5.0 99 0.0 NNE 13 19 7 10 1016.6 1012.7 2.2
27/07:00am 5.1 1.5 5.0 99 0.0 N 13 20 7 11 1016.4 1012.5 1.8
27/06:30am 4.7 2.2 4.6 99 0.0 NE 7 11 4 6 1016.3 1012.4 1.8
27/06:00am 4.8 0.4 4.7 99 0.0 NNE 17 20 9 11 1016.2 1012.3 1.8
27/05:30am 4.6 0.2 4.5 99 0.0 NNE 17 20 9 11 1015.9 1012.0 1.8
27/05:00am 4.7 1.0 4.6 99 0.0 NNE 13 20 7 11 1015.9 1012.0 1.8
27/04:30am 4.6 1.3 4.5 99 0.0 NE 11 17 6 9 1016.0 1012.1 1.8
27/04:00am 4.5 1.6 4.4 99 0.0 NE 9 13 5 7 1016.0 1012.1 1.6
27/03:30am 4.3 1.7 4.2 99 0.0 NE 7 11 4 6 1016.3 1012.4 1.6
27/03:00am 4.2 0.8 4.1 99 0.0 ENE 11 15 6 8 1016.5 1012.6 1.6
27/02:30am 4.1 1.1 4.0 99 0.0 ENE 9 15 5 8 1016.6 1012.7 1.6
27/02:00am 4.0 0.6 3.9 99 0.0 ENE 11 15 6 8 1016.8 1013.0 1.4
27/01:30am 4.0 0.6 3.9 99 0.0 ENE 11 13 6 7 1017.1 1013.2 1.4
27/01:00am 4.0 1.0 3.9 99 0.0 ENE 9 15 5 8 1017.3 1013.4 1.2
27/12:30am 4.0 0.6 3.9 99 0.0 ENE 11 17 6 9 1017.4 1013.5 1.2
27/12:00am 4.1 -0.1 4.0 99 0.0 ENE 15 22 8 12 1017.5 1013.7 1.0
 
Date/Time
EDT
Tmp

°C
App
Tmp
°C
Dew
Point
°C
Rel
Hum
%
Delta-T

°C
Wind Press
QNH
hPa
Press
MSL
hPa
Rain
since
9 am
mm
Dir
 
Spd
km/h
Gust
km/h
Spd
kts
Gust
kts
26/11:30pm 4.1 0.3 4.0 99 0.0 ENE 13 19 7 10 1017.5 1013.7 0.6
26/11:00pm 4.3 1.3 4.2 99 0.0 ENE 9 15 5 8 1017.6 1013.8 0.6
26/10:30pm 4.2 0.4 4.1 99 0.0 ENE 13 22 7 12 1017.6 1013.8 0.4
26/10:00pm 4.3 0.2 4.2 99 0.0 ENE 15 24 8 13 1017.6 1013.8 0.2
26/09:30pm 4.4 0.7 4.3 99 0.0 ENE 13 22 7 12 1017.5 1013.7 0.0
26/09:00pm 4.8 0.4 4.7 99 0.0 ENE 17 22 9 12 1017.3 1013.4 0.0
26/08:30pm 4.8 1.1 4.7 99 0.0 E 13 24 7 13 1017.1 1013.2 0.0
26/08:00pm 5.0 1.4 4.9 99 0.0 E 13 20 7 11 1016.8 1013.0 0.0
26/07:30pm 5.1 1.5 5.0 99 0.0 E 13 19 7 10 1016.3 1012.4 0.0
26/07:00pm 5.4 1.9 5.3 99 0.0 ENE 13 20 7 11 1015.8 1011.9 0.0
26/06:30pm 5.5 1.9 5.2 98 0.1 E 13 22 7 12 1015.6 1011.7 0.0
26/06:00pm 6.0 2.5 5.4 96 0.3 ENE 13 20 7 11 1015.5 1011.6 0.0
26/05:30pm 6.7 2.9 5.8 94 0.4 ENE 15 22 8 12 1015.4 1011.4 0.0
26/05:00pm 7.4 3.2 5.7 89 0.8 ENE 17 24 9 13 1015.4 1011.4 0.0
26/04:30pm 10.2 7.8 6.9 80 1.7 SE 9 17 5 9 1015.4 1011.4 0.0
26/04:00pm 11.4 8.2 3.2 57 3.9 NW 9 19 5 10 1015.1 1011.2 0.0
26/03:30pm 11.9 7.3 1.8 50 4.7 NW 15 26 8 14 1015.0 1011.1 0.0
26/03:00pm 11.6 7.0 1.3 49 4.7 NNW 15 26 8 14 1015.0 1011.1 0.0
26/02:30pm 10.8 6.0 2.4 56 3.9 NW 17 30 9 16 1015.0 1011.1 0.0
26/02:00pm 10.6 4.9 0.3 49 4.6 NNW 20 32 11 17 1015.0 1011.1 0.0
26/01:30pm 10.2 2.8 -0.9 46 4.8 NNW 28 37 15 20 1015.1 1011.2 0.0
26/01:00pm 9.3 1.2 -3.3 41 5.1 NNW 30 39 16 21 1015.4 1011.4 0.0
26/12:30pm 8.7 1.2 -1.1 50 4.1 NNW 28 41 15 22 1015.5 1011.6 0.0
26/12:00pm 8.5 1.5 -0.8 52 3.9 NNW 26 39 14 21 1015.4 1011.4 0.0
26/11:30am 8.2 2.6 1.1 61 3.1 NNW 20 32 11 17 1015.4 1011.4 0.0
26/11:00am 8.0 0.8 0.5 59 3.3 NNW 28 39 15 21 1015.4 1011.4 0.0
26/10:30am 7.6 -0.2 -0.6 56 3.5 NNW 30 41 16 22 1015.2 1011.3 0.0
26/10:00am 7.3 -0.5 -0.6 57 3.3 NNW 30 39 16 21 1015.4 1011.4 0.0
26/09:30am 7.4 -0.3 -0.1 59 3.2 NNW 30 39 16 21 1015.5 1011.6 0.0
26/09:00am 7.2 1.0 -0.5 58 3.2 N 22 30 12 16 1015.5 1011.6 0.0
26/08:30am 6.6 1.1 0.3 64 2.7 N 19 30 10 16 1015.4 1011.4 0.0
26/08:00am 3.5 0.6 2.5 93 0.4 NE 7 15 4 8 1015.0 1011.1 0.0
26/07:30am 3.2 -0.2 1.6 89 0.7 NNE 9 17 5 9 1014.9 1011.0 0.0
26/07:00am 3.2 -1.1 -1.5 71 1.9 NNE 11 17 6 9 1014.6 1010.6 0.0
26/06:30am 2.2 -2.0 -1.2 78 1.3 NNE 11 13 6 7 1014.1 1010.1 0.0
26/06:00am 0.5 -2.8 -1.4 87 0.8 NNE 6 9 3 5 1013.8 1009.8 0.0
26/05:30am 0.1 -2.9 -2.1 85 0.8 N 4 7 2 4 1013.5 1009.6 0.0
26/05:00am 0.3 -3.0 -1.0 91 0.5 NNE 6 11 3 6 1013.2 1009.2 0.0
26/04:30am 0.6 -4.0 -1.2 88 0.7 NNE 13 15 7 8 1013.1 1009.1 0.0
26/04:00am -0.3 -3.8 -1.4 92 0.4 N 7 9 4 5 1013.0 1009.0 0.0
26/03:30am 0.4 -3.4 -0.7 92 0.5 N 9 11 5 6 1013.0 1009.0 0.0
26/03:00am 1.1 -2.2 -0.1 92 0.5 NNE 7 11 4 6 1013.0 1009.0 0.0
26/02:30am 1.2 -2.9 -0.3 90 0.6 N 11 15 6 8 1012.7 1008.7 0.0
26/02:00am 2.3 -2.2 -0.4 82 1.1 NNW 13 19 7 10 1012.7 1008.7 0.0
26/01:30am 2.6 -1.9 -0.3 81 1.2 N 13 15 7 8 1012.8 1008.8 0.0
26/01:00am 3.0 -1.4 0.6 84 1.0 N 13 17 7 9 1013.0 1009.0 0.0
26/12:30am 3.3 -0.6 1.2 86 0.9 N 11 13 6 7 1013.1 1009.1 0.0
26/12:00am 5.3 1.2 2.3 81 1.3 NW 13 17 7 9 1013.0 1009.0 0.0
 
Date/Time
EDT
Tmp

°C
App
Tmp
°C
Dew
Point
°C
Rel
Hum
%
Delta-T

°C
Wind Press
QNH
hPa
Press
MSL
hPa
Rain
since
9 am
mm
Dir
 
Spd
km/h
Gust
km/h
Spd
kts
Gust
kts
25/11:30pm 5.5 1.4 2.3 80 1.4 NW 13 26 7 14 1012.8 1008.8 0.0
25/11:00pm 6.3 1.0 2.8 78 1.6 NW 20 26 11 14 1012.7 1008.7 0.0
25/10:30pm 6.4 1.3 3.0 79 1.5 WNW 19 28 10 15 1012.5 1008.5 0.0
25/10:00pm 6.4 2.8 3.2 80 1.5 WNW 11 20 6 11 1012.2 1008.1 0.0
25/09:30pm 7.0 2.3 3.4 78 1.7 NW 17 28 9 15 1011.8 1007.8 0.0
25/09:00pm 7.6 1.3 3.5 75 1.9 WNW 26 37 14 20 1011.4 1007.3 0.0
25/08:30pm 7.9 0.4 3.4 73 2.1 WNW 32 43 17 23 1010.9 1006.9 0.0
25/08:00pm 8.4 0.8 3.1 69 2.5 WNW 32 44 17 24 1010.6 1006.5 0.0
25/07:30pm 9.0 0.9 3.4 68 2.6 WNW 35 50 19 27 1010.2 1006.1 0.0
25/07:02pm 9.7 0.9 3.7 66 2.8 WNW 39 57 21 31 1009.9 1005.8 0.0
25/07:00pm 9.6 0.3 3.1 64 3.1 WNW 41 57 22 31 1009.9 1005.8 0.0
25/06:43pm 9.9 0.9 2.5 60 3.4 WNW 39 57 21 31 1009.6 1005.6 0.0
25/06:30pm 10.5 2.1 3.5 62 3.3 WNW 37 54 20 29 1009.5 1005.4 0.0
25/06:00pm 10.7 1.3 2.3 56 3.9 WNW 41 59 22 32 1009.1 1005.0 0.0
25/05:30pm 10.9 0.1 1.7 53 4.2 WNW 48 67 26 36 1008.7 1004.6 0.0

Latest Capital City Observations: Canberra | Sydney | Melbourne | Brisbane | Adelaide | Perth | Hobart | Darwin

Other Formats:

Comma delimited format used in spreadsheet applications
http://www.bom.gov.au/fwo/IDN60903/IDN60903.95909.axf

JavaScript Object Notation format (JSON) in row-major order
http://www.bom.gov.au/fwo/IDN60903/IDN60903.95909.json